LDZA/ZAG METAR and TAF weather

Enter ICAO airport designator
Station Type Date Time Source
LDZA METAR 2019/12/10 19:30 UTC NOAA

LDZA 101930Z 07004KT 020V110 CAVOK 04/M03 Q1024 NOSIG


Station Type Date Time Source
LDZA Decoded METAR 2019/12/10 19:30 UTC NOAA

Zagreb / Pleso, Croatia (LDZA) 45-44N 016-04E 107M
Dec 10, 2019 - 02:30 PM EST / 2019.12.10 1930 UTC
Wind: from the ENE (070 degrees) at 5 MPH (4 KT) (direction variable):0
Visibility: greater than 7 mile(s):0
Temperature: 39 F (4 C)
Dew Point: 26 F (-3 C)
Relative Humidity: 60%
Pressure (altimeter): 30.24 in. Hg (1024 hPa)
ob: LDZA 101930Z 07004KT 020V110 CAVOK 04/M03 Q1024 NOSIG
cycle: 19

Station Type Date Time Source
LDZA TAF 2019/12/10 18:27 UTC NOAA

TAF LDZA 101725Z 1018/1118 05005KT CAVOK TX04/1018Z TNM05/1105Z

Example: see airport list